Busby, United Kingdom
Current Conditions -  °F | °C
As of 7:20 AM on Sunday 23 Nov 2014 (Local Time) from EGPF Reporting Station
Light Fog Light Fog  
Wind Chill: 34°   Ceiling: Unl
Heat Index: 34°   Visibility: 6mi
Dew Point: 34°   Wind: 1mph
Humidity: 100%   Direction: NA
Pressure: 30"   Gusts: NA
Location:  55.78°N, 4.27°W
Report Text: EGPF 230720Z VRB01KT 9999 MIFG NSC 01/01 Q1016
Loading
Personal Weather Stations






























Interactive Weather Map New forecast layout! Learn more

10-Day Weather Forecast

Advertisements
Track Severe Weather on mobile